Time;durP1;ratioP1;P1;durP2;ratioP2;P2;SDS_P1;SDS_P2;PMS_P1;PMS_P2;Temp;Humidity;BMP_temperature;BMP_pressure;BME280_temperature;BME280_humidity;BME280_pressure;Samples;Min_cycle;Max_cycle;Signal;HPM_P1;HPM_P2
2023/12/05 00:01:14;;;;;;;15.70;8.48;;;;;;;;;;5062500;28;20040;-59
2023/12/05 00:03:40;;;;;;;18.10;9.30;;;;;;;;;;5062396;28;20184;-59
2023/12/05 00:06:12;;;;;;;18.83;9.57;;;;;;;;;;5061730;28;20044;-59
2023/12/05 00:08:38;;;;;;;17.17;8.95;;;;;;;;;;5061345;28;20076;-59
2023/12/05 00:11:06;;;;;;;20.13;10.25;;;;;;;;;;5060558;28;20056;-59
2023/12/05 00:13:32;;;;;;;17.05;9.38;;;;;;;;;;5062077;28;20678;-59
2023/12/05 00:15:58;;;;;;;19.48;9.70;;;;;;;;;;5061044;28;20601;-59
2023/12/05 00:18:25;;;;;;;16.83;9.77;;;;;;;;;;5047391;28;20487;-59
2023/12/05 00:20:51;;;;;;;17.73;10.05;;;;;;;;;;5061014;28;20032;-59
2023/12/05 00:23:17;;;;;;;17.02;9.30;;;;;;;;;;5060324;28;20087;-59
2023/12/05 00:25:43;;;;;;;15.63;9.07;;;;;;;;;;5062032;28;20116;-58
2023/12/05 00:28:09;;;;;;;16.92;9.43;;;;;;;;;;5060327;28;20082;-59
2023/12/05 00:30:35;;;;;;;18.85;9.23;;;;;;;;;;5062161;28;20713;-58
2023/12/05 00:33:01;;;;;;;21.45;11.32;;;;;;;;;;5061795;28;20078;-59
2023/12/05 00:35:27;;;;;;;21.20;10.05;;;;;;;;;;5061654;28;20032;-59
2023/12/05 00:37:53;;;;;;;17.90;9.05;;;;;;;;;;5063838;28;20105;-59
2023/12/05 00:40:19;;;;;;;19.38;11.18;;;;;;;;;;5065900;28;20040;-59
2023/12/05 00:42:45;;;;;;;19.58;9.35;;;;;;;;;;5065183;28;20048;-59
2023/12/05 00:45:15;;;;;;;17.45;9.88;;;;;;;;;;5063287;28;20417;-59
2023/12/05 00:47:41;;;;;;;22.60;10.55;;;;;;;;;;5064126;28;20482;-58
2023/12/05 00:50:07;;;;;;;18.75;10.25;;;;;;;;;;5065872;28;20064;-59
2023/12/05 00:52:33;;;;;;;19.35;10.48;;;;;;;;;;5064960;28;20037;-59
2023/12/05 00:55:00;;;;;;;19.42;9.43;;;;;;;;;;5065852;28;20047;-59
2023/12/05 00:57:26;;;;;;;20.08;10.23;;;;;;;;;;5064563;28;20040;-59
2023/12/05 00:59:52;;;;;;;17.27;9.43;;;;;;;;;;5064766;28;20680;-59
2023/12/05 01:02:18;;;;;;;17.95;10.50;;;;;;;;;;5064206;28;20133;-59
2023/12/05 01:04:44;;;;;;;17.95;10.70;;;;;;;;;;5064193;28;20210;-59
2023/12/05 01:07:12;;;;;;;18.05;10.95;;;;;;;;;;5064164;28;20059;-59
2023/12/05 01:09:39;;;;;;;16.05;9.82;;;;;;;;;;5063644;28;20124;-58
2023/12/05 01:12:06;;;;;;;19.75;9.88;;;;;;;;;;5064496;28;20098;-59
2023/12/05 01:14:32;;;;;;;20.25;10.13;;;;;;;;;;5065198;28;20040;-59
2023/12/05 01:16:58;;;;;;;15.02;9.50;;;;;;;;;;5060582;28;20060;-59
2023/12/05 01:19:24;;;;;;;18.17;10.07;;;;;;;;;;5055667;28;20036;-59
2023/12/05 01:21:50;;;;;;;17.92;10.30;;;;;;;;;;5064573;28;20121;-59
2023/12/05 01:24:16;;;;;;;20.92;11.13;;;;;;;;;;5065579;28;20041;-59
2023/12/05 01:26:42;;;;;;;18.67;10.30;;;;;;;;;;5064541;28;20537;-59
2023/12/05 01:29:08;;;;;;;20.88;10.30;;;;;;;;;;5064923;28;20081;-59
2023/12/05 01:31:34;;;;;;;19.23;10.95;;;;;;;;;;5064850;28;20048;-59
2023/12/05 01:34:00;;;;;;;19.38;10.23;;;;;;;;;;5064319;28;20570;-59
2023/12/05 01:36:26;;;;;;;20.77;10.85;;;;;;;;;;5062093;28;20055;-59
2023/12/05 01:38:52;;;;;;;17.83;10.23;;;;;;;;;;5064493;28;20106;-59
2023/12/05 01:41:19;;;;;;;22.52;12.63;;;;;;;;;;5064275;28;20059;-59
2023/12/05 01:43:45;;;;;;;19.80;11.30;;;;;;;;;;5064277;28;20120;-59
2023/12/05 01:46:11;;;;;;;20.40;11.05;;;;;;;;;;5064393;28;20570;-59
2023/12/05 01:48:37;;;;;;;22.40;12.02;;;;;;;;;;5062169;28;20049;-59
2023/12/05 01:51:04;;;;;;;22.25;11.88;;;;;;;;;;5064419;28;20557;-59
2023/12/05 01:53:31;;;;;;;19.63;11.07;;;;;;;;;;5064439;28;20048;-60
2023/12/05 01:55:57;;;;;;;21.70;11.07;;;;;;;;;;5064195;28;20037;-59
2023/12/05 01:58:23;;;;;;;19.75;11.27;;;;;;;;;;5064557;28;20119;-59
2023/12/05 02:00:49;;;;;;;21.30;12.10;;;;;;;;;;5064245;28;20517;-59
2023/12/05 02:03:15;;;;;;;19.17;10.98;;;;;;;;;;5064321;28;20044;-59
2023/12/05 02:05:41;;;;;;;22.98;12.57;;;;;;;;;;5063859;28;20051;-59
2023/12/05 02:08:09;;;;;;;20.27;11.55;;;;;;;;;;5063529;28;20521;-59
2023/12/05 02:10:35;;;;;;;20.60;12.07;;;;;;;;;;5063625;28;20571;-59
2023/12/05 02:13:01;;;;;;;21.77;12.00;;;;;;;;;;5064251;28;20498;-59
2023/12/05 02:15:27;;;;;;;23.40;12.35;;;;;;;;;;5064358;28;20048;-57
2023/12/05 02:18:15;;;;;;;20.23;12.00;;;;;;;;;;5052299;28;20049;-57
2023/12/05 02:20:51;;;;;;;21.65;12.38;;;;;;;;;;5049212;28;20036;-57
2023/12/05 02:23:17;;;;;;;22.30;12.38;;;;;;;;;;5062293;28;20064;-57
2023/12/05 02:25:43;;;;;;;20.67;12.57;;;;;;;;;;5062702;28;20041;-57
2023/12/05 02:28:09;;;;;;;21.83;12.32;;;;;;;;;;5063024;28;20535;-56
2023/12/05 02:30:35;;;;;;;22.40;12.35;;;;;;;;;;5061271;28;20551;-57
2023/12/05 02:33:02;;;;;;;23.85;12.55;;;;;;;;;;5062709;28;20076;-57
2023/12/05 02:35:28;;;;;;;21.27;12.48;;;;;;;;;;5062807;28;20040;-57
2023/12/05 02:38:06;;;;;;;21.13;12.18;;;;;;;;;;5062642;28;20047;-57
2023/12/05 02:40:32;;;;;;;22.50;12.05;;;;;;;;;;5049833;28;20041;-56
2023/12/05 02:42:58;;;;;;;23.65;13.07;;;;;;;;;;5064128;28;20048;-56
2023/12/05 02:45:25;;;;;;;22.38;13.55;;;;;;;;;;5063578;28;20037;-56
2023/12/05 02:47:52;;;;;;;21.65;12.35;;;;;;;;;;5063951;28;20043;-57
2023/12/05 02:50:18;;;;;;;22.08;12.45;;;;;;;;;;5063682;28;20044;-57
2023/12/05 02:52:44;;;;;;;22.20;12.02;;;;;;;;;;5061144;28;20040;-57
2023/12/05 02:55:10;;;;;;;21.52;12.90;;;;;;;;;;5061345;28;20055;-57
2023/12/05 02:57:37;;;;;;;22.42;12.52;;;;;;;;;;5062994;28;20063;-57
2023/12/05 03:00:04;;;;;;;19.98;10.88;;;;;;;;;;5062734;28;20040;-57
2023/12/05 03:02:30;;;;;;;20.92;11.90;;;;;;;;;;5063300;28;20052;-57
2023/12/05 03:04:56;;;;;;;20.63;11.82;;;;;;;;;;5063370;28;20498;-57
2023/12/05 03:07:22;;;;;;;20.15;12.20;;;;;;;;;;5060587;28;20063;-57
2023/12/05 03:09:48;;;;;;;22.30;12.98;;;;;;;;;;5063245;28;20080;-57
2023/12/05 03:12:14;;;;;;;22.45;13.02;;;;;;;;;;5063273;28;20387;-57
2023/12/05 03:14:40;;;;;;;23.80;13.45;;;;;;;;;;5062880;28;20155;-57
2023/12/05 03:17:06;;;;;;;21.23;12.63;;;;;;;;;;5063164;28;20052;-57
2023/12/05 03:19:32;;;;;;;21.05;12.48;;;;;;;;;;5063126;28;20040;-57
2023/12/05 03:21:58;;;;;;;20.52;12.18;;;;;;;;;;5060881;28;20044;-57
2023/12/05 03:24:24;;;;;;;19.55;11.35;;;;;;;;;;5061901;28;20040;-57
2023/12/05 03:26:50;;;;;;;22.23;13.18;;;;;;;;;;5061371;28;21659;-57
2023/12/05 03:29:16;;;;;;;21.52;12.98;;;;;;;;;;5061543;28;20535;-58
2023/12/05 03:31:42;;;;;;;21.20;12.75;;;;;;;;;;5062508;28;20076;-57
2023/12/05 03:34:08;;;;;;;21.45;13.20;;;;;;;;;;5062250;28;20076;-57
2023/12/05 03:36:34;;;;;;;24.10;13.02;;;;;;;;;;5061927;28;20041;-57
2023/12/05 03:39:00;;;;;;;21.13;13.07;;;;;;;;;;5062680;28;20040;-57
2023/12/05 03:41:26;;;;;;;24.05;13.75;;;;;;;;;;5063026;28;20049;-57
2023/12/05 03:43:52;;;;;;;23.83;13.35;;;;;;;;;;5062466;28;20072;-56
2023/12/05 03:46:18;;;;;;;24.23;13.75;;;;;;;;;;5061665;28;20032;-57
2023/12/05 03:48:44;;;;;;;22.63;13.40;;;;;;;;;;5062783;28;20394;-57
2023/12/05 03:51:10;;;;;;;25.70;14.73;;;;;;;;;;5061491;28;20040;-57
2023/12/05 03:53:36;;;;;;;25.80;13.60;;;;;;;;;;5061325;28;20429;-57
2023/12/05 03:56:02;;;;;;;29.00;14.65;;;;;;;;;;5061399;28;20048;-57
2023/12/05 03:58:28;;;;;;;26.00;14.48;;;;;;;;;;5061035;28;20083;-57
2023/12/05 04:00:54;;;;;;;25.63;13.88;;;;;;;;;;5059891;28;20410;-57
2023/12/05 04:03:21;;;;;;;27.90;15.05;;;;;;;;;;5060787;28;20047;-57
2023/12/05 04:05:47;;;;;;;26.30;14.85;;;;;;;;;;5060037;28;20045;-57
2023/12/05 04:08:13;;;;;;;26.70;14.80;;;;;;;;;;5061256;28;20048;-56
2023/12/05 04:10:39;;;;;;;26.83;15.07;;;;;;;;;;5061303;28;20414;-57
2023/12/05 04:13:05;;;;;;;24.67;13.27;;;;;;;;;;5062664;28;20044;-55
2023/12/05 04:15:31;;;;;;;26.48;14.23;;;;;;;;;;5062470;28;20028;-57
2023/12/05 04:17:56;;;;;;;26.95;15.45;;;;;;;;;;5061865;28;20551;-57
2023/12/05 04:20:22;;;;;;;26.45;14.18;;;;;;;;;;5062253;28;20033;-57
2023/12/05 04:22:49;;;;;;;27.73;14.65;;;;;;;;;;5061033;28;20498;-57
2023/12/05 04:25:16;;;;;;;26.52;14.90;;;;;;;;;;5062061;28;20048;-57
2023/12/05 04:27:42;;;;;;;25.67;14.80;;;;;;;;;;5062090;28;20044;-57
2023/12/05 04:30:08;;;;;;;29.73;15.57;;;;;;;;;;5061575;28;20055;-57
2023/12/05 04:32:34;;;;;;;26.17;14.63;;;;;;;;;;5062208;28;20494;-56
2023/12/05 04:35:00;;;;;;;29.73;15.80;;;;;;;;;;5060293;28;20045;-56
2023/12/05 04:37:26;;;;;;;35.60;16.17;;;;;;;;;;5061223;28;20051;-57
2023/12/05 04:39:52;;;;;;;28.15;14.55;;;;;;;;;;5062330;28;20537;-56
2023/12/05 04:42:18;;;;;;;28.90;15.43;;;;;;;;;;5061762;28;20059;-56
2023/12/05 04:44:44;;;;;;;28.50;15.52;;;;;;;;;;5062290;28;20643;-57
2023/12/05 04:47:10;;;;;;;30.50;16.27;;;;;;;;;;5061535;28;20182;-56
2023/12/05 04:49:36;;;;;;;29.85;15.98;;;;;;;;;;5060961;28;20052;-56
2023/12/05 04:52:02;;;;;;;29.75;15.82;;;;;;;;;;5061705;28;20048;-57
2023/12/05 04:54:28;;;;;;;35.47;16.17;;;;;;;;;;5059523;28;20148;-57
2023/12/05 04:56:54;;;;;;;28.58;15.93;;;;;;;;;;5061873;28;20045;-57
2023/12/05 04:59:20;;;;;;;27.15;14.57;;;;;;;;;;5061145;28;20044;-57
2023/12/05 05:01:47;;;;;;;31.55;16.33;;;;;;;;;;5060415;28;20397;-57
2023/12/05 05:04:13;;;;;;;31.67;16.63;;;;;;;;;;5059176;28;20045;-57
2023/12/05 05:06:39;;;;;;;29.95;14.93;;;;;;;;;;5060437;28;20160;-57
2023/12/05 05:09:05;;;;;;;29.35;16.38;;;;;;;;;;5061652;28;20041;-57
2023/12/05 05:11:32;;;;;;;30.70;15.50;;;;;;;;;;5061356;28;20056;-57
2023/12/05 05:13:58;;;;;;;28.25;14.60;;;;;;;;;;5061824;28;20235;-57
2023/12/05 05:16:24;;;;;;;27.27;15.27;;;;;;;;;;5061386;28;20113;-57
2023/12/05 05:18:52;;;;;;;32.90;17.17;;;;;;;;;;5061073;28;20068;-57
2023/12/05 05:21:18;;;;;;;28.07;14.87;;;;;;;;;;5061175;28;20037;-57
2023/12/05 05:23:44;;;;;;;28.58;16.38;;;;;;;;;;5064501;28;21002;-57
2023/12/05 05:26:10;;;;;;;30.15;16.00;;;;;;;;;;5065163;28;20041;-57
2023/12/05 05:28:36;;;;;;;34.47;16.85;;;;;;;;;;5062619;28;20121;-57
2023/12/05 05:31:02;;;;;;;30.13;16.75;;;;;;;;;;5063688;28;20047;-57
2023/12/05 05:33:28;;;;;;;30.80;15.82;;;;;;;;;;5063930;28;20051;-57
2023/12/05 05:35:54;;;;;;;31.17;15.77;;;;;;;;;;5062830;28;20526;-57
2023/12/05 05:38:20;;;;;;;29.38;15.88;;;;;;;;;;5063415;28;20040;-57
2023/12/05 05:40:47;;;;;;;28.98;16.23;;;;;;;;;;5062940;28;20529;-57
2023/12/05 05:43:13;;;;;;;27.90;15.35;;;;;;;;;;5064371;28;20041;-57
2023/12/05 05:45:39;;;;;;;32.38;14.85;;;;;;;;;;5061528;28;20048;-59
2023/12/05 05:48:06;;;;;;;30.80;15.63;;;;;;;;;;5064706;28;20534;-59
2023/12/05 05:50:32;;;;;;;31.88;16.23;;;;;;;;;;5063279;28;20051;-59
2023/12/05 05:52:58;;;;;;;36.15;15.55;;;;;;;;;;5052181;28;20064;-57
2023/12/05 05:55:24;;;;;;;28.58;14.85;;;;;;;;;;5062539;28;20072;-59
2023/12/05 05:57:51;;;;;;;32.55;17.30;;;;;;;;;;5064348;28;20075;-58
2023/12/05 06:00:17;;;;;;;30.00;14.88;;;;;;;;;;5064354;28;20041;-59
2023/12/05 06:02:43;;;;;;;31.42;16.08;;;;;;;;;;5063591;28;20436;-59
2023/12/05 06:05:09;;;;;;;31.38;16.60;;;;;;;;;;5065059;28;20044;-59
2023/12/05 06:07:36;;;;;;;30.95;15.35;;;;;;;;;;5063034;28;20428;-59
2023/12/05 06:10:02;;;;;;;28.90;15.98;;;;;;;;;;5063843;28;20144;-59
2023/12/05 06:12:29;;;;;;;30.67;15.43;;;;;;;;;;5059332;28;20175;-59
2023/12/05 06:14:55;;;;;;;52.28;24.90;;;;;;;;;;5057704;28;20083;-59
2023/12/05 06:17:21;;;;;;;94.25;37.53;;;;;;;;;;5058764;28;20528;-59
2023/12/05 06:19:47;;;;;;;40.22;21.55;;;;;;;;;;5062730;28;20052;-59
2023/12/05 06:22:13;;;;;;;30.83;16.77;;;;;;;;;;5062306;28;20136;-59
2023/12/05 06:24:39;;;;;;;29.40;15.65;;;;;;;;;;5063474;28;20045;-58
2023/12/05 06:27:05;;;;;;;27.27;14.38;;;;;;;;;;5059205;28;20473;-58
2023/12/05 06:29:32;;;;;;;32.08;16.65;;;;;;;;;;5054712;28;20048;-59
2023/12/05 06:31:57;;;;;;;30.15;15.57;;;;;;;;;;5061880;28;20564;-59
2023/12/05 06:34:24;;;;;;;34.13;17.17;;;;;;;;;;5061138;28;20052;-59
2023/12/05 06:36:50;;;;;;;30.55;15.57;;;;;;;;;;5057482;28;20421;-59
2023/12/05 06:39:16;;;;;;;34.42;17.23;;;;;;;;;;5059489;28;20809;-59
2023/12/05 06:41:42;;;;;;;33.35;17.23;;;;;;;;;;5049060;28;20029;-61
2023/12/05 06:44:08;;;;;;;30.02;16.15;;;;;;;;;;5042010;28;20049;-58
2023/12/05 06:46:34;;;;;;;28.83;15.52;;;;;;;;;;5049666;28;20044;-58
2023/12/05 06:49:01;;;;;;;30.38;15.43;;;;;;;;;;5060705;28;20120;-57
2023/12/05 06:51:27;;;;;;;46.75;24.92;;;;;;;;;;5055293;28;20098;-58
2023/12/05 06:53:53;;;;;;;32.35;16.27;;;;;;;;;;5062569;28;20033;-58
2023/12/05 06:56:20;;;;;;;54.10;29.88;;;;;;;;;;5063977;28;20121;-59
2023/12/05 06:58:46;;;;;;;36.08;19.40;;;;;;;;;;5063714;28;20040;-58
2023/12/05 07:01:12;;;;;;;42.72;21.15;;;;;;;;;;5055895;28;20052;-58
2023/12/05 07:03:38;;;;;;;28.67;15.05;;;;;;;;;;5061991;28;20040;-58
2023/12/05 07:06:05;;;;;;;36.35;18.00;;;;;;;;;;5063005;28;20044;-58
2023/12/05 07:08:32;;;;;;;29.70;15.15;;;;;;;;;;5063787;28;20144;-58
2023/12/05 07:10:58;;;;;;;30.90;16.90;;;;;;;;;;5062851;28;20076;-59
2023/12/05 07:13:24;;;;;;;28.40;15.75;;;;;;;;;;5063630;28;20044;-58
2023/12/05 07:15:50;;;;;;;30.67;15.82;;;;;;;;;;5063100;28;20036;-58
2023/12/05 07:18:16;;;;;;;33.30;15.38;;;;;;;;;;5053067;28;20061;-58
2023/12/05 07:20:42;;;;;;;31.42;15.68;;;;;;;;;;5054278;28;20045;-58
2023/12/05 07:23:08;;;;;;;26.38;14.20;;;;;;;;;;5054727;28;20053;-58
2023/12/05 07:25:34;;;;;;;38.60;18.50;;;;;;;;;;5062493;28;20043;-58
2023/12/05 07:28:00;;;;;;;32.80;16.17;;;;;;;;;;5055423;28;20410;-58
2023/12/05 07:30:26;;;;;;;30.75;15.25;;;;;;;;;;5062254;28;20051;-58
2023/12/05 07:32:52;;;;;;;29.88;15.20;;;;;;;;;;5062023;28;20063;-58
2023/12/05 07:35:18;;;;;;;33.13;16.48;;;;;;;;;;5062024;28;20478;-58
2023/12/05 07:37:44;;;;;;;30.65;15.55;;;;;;;;;;5052952;28;20036;-58
2023/12/05 07:40:10;;;;;;;30.73;15.00;;;;;;;;;;5062256;28;20383;-58
2023/12/05 07:42:36;;;;;;;35.17;15.38;;;;;;;;;;5062410;28;20047;-58
2023/12/05 07:45:04;;;;;;;31.52;16.30;;;;;;;;;;5062874;28;20040;-58
2023/12/05 07:47:30;;;;;;;37.17;19.45;;;;;;;;;;5062035;28;20097;-58
2023/12/05 07:49:56;;;;;;;29.98;15.00;;;;;;;;;;5062692;28;20638;-58
2023/12/05 07:52:22;;;;;;;25.38;13.95;;;;;;;;;;5047033;28;20059;-58
2023/12/05 07:54:48;;;;;;;28.58;14.80;;;;;;;;;;5057634;28;20442;-59
2023/12/05 07:57:21;;;;;;;30.40;15.68;;;;;;;;;;5043038;28;20036;-58
2023/12/05 07:59:47;;;;;;;34.80;16.80;;;;;;;;;;5045212;28;20483;-58
2023/12/05 08:02:13;;;;;;;38.58;18.55;;;;;;;;;;5055274;28;20139;-58
2023/12/05 08:04:40;;;;;;;32.28;14.88;;;;;;;;;;5048495;28;20128;-58
2023/12/05 08:07:06;;;;;;;28.13;14.30;;;;;;;;;;5059811;28;20064;-59
2023/12/05 08:09:32;;;;;;;37.50;18.13;;;;;;;;;;5056498;28;20040;-59
2023/12/05 08:11:58;;;;;;;31.08;13.93;;;;;;;;;;5061530;28;20426;-59
2023/12/05 08:14:23;;;;;;;27.98;14.40;;;;;;;;;;5061445;28;20048;-60
2023/12/05 08:16:50;;;;;;;25.95;13.77;;;;;;;;;;5061656;28;20048;-59
2023/12/05 08:19:16;;;;;;;29.98;14.82;;;;;;;;;;5062188;28;20048;-59
2023/12/05 08:21:42;;;;;;;29.60;14.60;;;;;;;;;;5055574;28;20037;-59
2023/12/05 08:24:08;;;;;;;28.23;13.60;;;;;;;;;;5061801;28;20044;-59
2023/12/05 08:26:34;;;;;;;30.50;14.77;;;;;;;;;;5061969;28;20405;-59
2023/12/05 08:29:00;;;;;;;26.88;13.05;;;;;;;;;;5061985;28;20051;-59
2023/12/05 08:31:26;;;;;;;31.20;14.48;;;;;;;;;;5059825;28;20498;-59
2023/12/05 08:33:53;;;;;;;27.17;13.57;;;;;;;;;;5059451;28;20095;-59
2023/12/05 08:36:19;;;;;;;27.15;14.23;;;;;;;;;;5059162;28;20052;-60
2023/12/05 08:38:45;;;;;;;30.00;14.35;;;;;;;;;;5059492;28;20045;-59
2023/12/05 08:41:18;;;;;;;28.52;14.38;;;;;;;;;;5060029;28;20040;-59
2023/12/05 08:43:44;;;;;;;55.78;15.38;;;;;;;;;;5060012;28;20047;-59
2023/12/05 08:46:10;;;;;;;30.55;14.05;;;;;;;;;;5060827;28;20045;-59
2023/12/05 08:48:36;;;;;;;30.02;13.68;;;;;;;;;;5060815;28;20501;-59
2023/12/05 08:51:02;;;;;;;30.85;14.60;;;;;;;;;;5060714;28;20039;-59
2023/12/05 08:53:28;;;;;;;31.70;15.48;;;;;;;;;;5062098;28;20049;-59
2023/12/05 08:55:54;;;;;;;33.53;16.88;;;;;;;;;;5061698;28;20044;-60
2023/12/05 08:58:20;;;;;;;27.73;13.88;;;;;;;;;;5064721;28;20071;-59
2023/12/05 09:00:46;;;;;;;33.88;15.32;;;;;;;;;;5065930;28;20485;-59
2023/12/05 09:03:13;;;;;;;29.83;15.20;;;;;;;;;;5062039;28;20063;-59
2023/12/05 09:05:39;;;;;;;27.73;13.90;;;;;;;;;;5052315;28;20491;-59
2023/12/05 09:08:05;;;;;;;29.90;14.43;;;;;;;;;;5064151;28;20052;-59
2023/12/05 09:10:31;;;;;;;31.40;14.65;;;;;;;;;;5065749;28;20132;-59
2023/12/05 09:12:57;;;;;;;28.35;14.00;;;;;;;;;;5065698;28;20152;-59
2023/12/05 09:15:23;;;;;;;28.52;14.90;;;;;;;;;;5065597;28;20157;-58
2023/12/05 09:17:49;;;;;;;28.65;14.40;;;;;;;;;;5065848;28;20051;-59
2023/12/05 09:20:15;;;;;;;28.83;14.40;;;;;;;;;;5064195;28;20032;-60
2023/12/05 09:22:41;;;;;;;28.80;14.50;;;;;;;;;;5065212;28;20048;-59
2023/12/05 09:25:08;;;;;;;30.13;15.23;;;;;;;;;;5065041;28;20406;-59
2023/12/05 09:27:34;;;;;;;27.10;14.63;;;;;;;;;;5065575;28;20506;-59
2023/12/05 09:30:00;;;;;;;27.75;14.32;;;;;;;;;;5065586;28;20123;-59
2023/12/05 09:32:26;;;;;;;31.58;14.80;;;;;;;;;;5065129;28;20468;-59
2023/12/05 09:34:52;;;;;;;29.33;14.07;;;;;;;;;;5064747;28;20053;-59
2023/12/05 09:37:18;;;;;;;29.08;14.63;;;;;;;;;;5065265;28;20041;-59
2023/12/05 09:39:44;;;;;;;27.50;14.38;;;;;;;;;;5065203;28;20041;-59
2023/12/05 09:42:13;;;;;;;29.52;15.10;;;;;;;;;;5064730;28;20562;-59
2023/12/05 09:44:41;;;;;;;28.30;15.80;;;;;;;;;;5065482;28;20090;-58
2023/12/05 09:47:10;;;;;;;30.98;15.32;;;;;;;;;;5064887;28;20040;-58
2023/12/05 09:49:36;;;;;;;32.30;14.45;;;;;;;;;;5064853;28;20037;-59
2023/12/05 09:52:02;;;;;;;32.33;14.70;;;;;;;;;;5064655;28;20052;-59
2023/12/05 09:54:28;;;;;;;32.00;16.20;;;;;;;;;;5063708;28;20052;-59
2023/12/05 09:56:58;;;;;;;28.88;15.05;;;;;;;;;;5065250;28;20052;-59
2023/12/05 09:59:24;;;;;;;32.95;16.27;;;;;;;;;;5064261;28;20135;-59
2023/12/05 10:01:53;;;;;;;27.48;14.73;;;;;;;;;;5063016;28;20473;-59
2023/12/05 10:04:19;;;;;;;;;;;;;;;;;;5047415;28;20127;-59
2023/12/05 10:06:45;;;;;;;29.38;15.00;;;;;;;;;;5063849;28;20008;-58
2023/12/05 10:09:15;;;;;;;31.92;15.70;;;;;;;;;;5063850;28;20048;-58
2023/12/05 10:11:41;;;;;;;30.27;14.65;;;;;;;;;;5064431;28;20056;-59
2023/12/05 10:14:07;;;;;;;30.10;15.38;;;;;;;;;;5064315;28;20067;-58
2023/12/05 10:16:33;;;;;;;30.63;14.70;;;;;;;;;;5063582;28;20052;-58
2023/12/05 10:19:00;;;;;;;30.13;15.05;;;;;;;;;;5064250;28;20097;-58
2023/12/05 10:21:26;;;;;;;30.10;15.43;;;;;;;;;;5063497;28;20070;-59
2023/12/05 10:23:52;;;;;;;28.98;14.70;;;;;;;;;;5064702;28;20078;-59
2023/12/05 10:26:18;;;;;;;31.20;15.05;;;;;;;;;;5064465;28;20044;-59
2023/12/05 10:28:55;;;;;;;31.00;14.93;;;;;;;;;;5063243;28;20048;-59
2023/12/05 10:31:21;;;;;;;32.95;16.00;;;;;;;;;;5064785;28;20161;-58
2023/12/05 10:33:50;;;;;;;31.05;15.15;;;;;;;;;;5064058;28;20649;-59
2023/12/05 10:36:16;;;;;;;29.55;15.13;;;;;;;;;;5063576;28;20036;-59
2023/12/05 10:38:46;;;;;;;30.13;15.65;;;;;;;;;;5063640;28;20048;-59
2023/12/05 10:41:12;;;;;;;28.85;15.43;;;;;;;;;;5062651;28;20051;-59
2023/12/05 10:43:38;;;;;;;30.40;15.02;;;;;;;;;;5064392;28;20044;-59
2023/12/05 10:46:05;;;;;;;28.63;14.20;;;;;;;;;;5063910;28;20056;-59
2023/12/05 10:48:31;;;;;;;30.23;15.80;;;;;;;;;;5046040;28;20052;-59
2023/12/05 10:50:57;;;;;;;32.92;15.75;;;;;;;;;;5063650;28;20048;-59
2023/12/05 10:53:26;;;;;;;28.58;14.90;;;;;;;;;;5063906;28;20449;-59
2023/12/05 10:55:52;;;;;;;26.65;14.52;;;;;;;;;;5063674;28;20612;-59
2023/12/05 10:58:18;;;;;;;33.55;16.40;;;;;;;;;;5063311;28;20095;-59
2023/12/05 11:00:44;;;;;;;27.33;14.50;;;;;;;;;;5062249;28;20040;-59
2023/12/05 11:03:14;;;;;;;29.15;15.15;;;;;;;;;;5061715;28;20054;-59
2023/12/05 11:05:40;;;;;;;30.45;14.63;;;;;;;;;;5051246;28;20056;-59
2023/12/05 11:08:06;;;;;;;31.65;15.63;;;;;;;;;;5063647;28;20052;-59
2023/12/05 11:10:32;;;;;;;32.72;14.85;;;;;;;;;;5063142;28;20048;-59
2023/12/05 11:13:01;;;;;;;27.52;14.75;;;;;;;;;;5064101;28;20052;-59
2023/12/05 11:15:29;;;;;;;28.67;14.68;;;;;;;;;;5064055;28;20040;-59
2023/12/05 11:18:00;;;;;;;30.27;15.20;;;;;;;;;;5063377;28;20129;-59
2023/12/05 11:20:26;;;;;;;30.60;15.30;;;;;;;;;;5062782;28;20066;-59
2023/12/05 11:22:55;;;;;;;33.50;15.10;;;;;;;;;;5063561;28;20139;-59
2023/12/05 11:25:20;;;;;;;;;;;;;;;;;;5063408;28;20486;-59
2023/12/05 11:28:05;;;;;;;28.55;15.05;;;;;;;;;;5063606;28;19935;-59
2023/12/05 11:30:43;;;;;;;31.70;15.35;;;;;;;;;;5063000;28;20037;-59
2023/12/05 11:33:09;;;;;;;32.58;15.43;;;;;;;;;;5063152;28;20053;-59
2023/12/05 11:36:03;;;;;;;29.63;15.00;;;;;;;;;;5061984;28;20055;-59
2023/12/05 11:38:29;;;;;;;28.73;14.23;;;;;;;;;;5063237;28;20332;-59
2023/12/05 11:41:14;;;;;;;31.90;15.73;;;;;;;;;;5062457;28;20037;-59
2023/12/05 11:43:42;;;;;;;29.60;14.32;;;;;;;;;;5055481;28;20130;-59
2023/12/05 11:46:09;;;;;;;32.42;15.88;;;;;;;;;;5062195;28;20052;-59
2023/12/05 11:48:35;;;;;;;29.67;15.63;;;;;;;;;;5054897;28;20043;-59
2023/12/05 11:51:04;;;;;;;28.15;15.00;;;;;;;;;;5060650;28;20123;-59
2023/12/05 11:53:30;;;;;;;29.98;14.38;;;;;;;;;;5052204;28;20517;-59
2023/12/05 11:55:57;;;;;;;53.13;25.13;;;;;;;;;;5049137;28;20099;-60
2023/12/05 11:58:30;;;;;;;31.30;15.82;;;;;;;;;;5040723;28;20091;-60
2023/12/05 12:01:05;;;;;;;35.17;17.58;;;;;;;;;;5042866;28;20037;-60
2023/12/05 12:03:44;;;;;;;32.22;17.02;;;;;;;;;;5054270;28;20511;-61
2023/12/05 12:06:11;;;;;;;32.28;15.57;;;;;;;;;;5045715;28;20045;-60
2023/12/05 12:08:37;;;;;;;31.27;16.85;;;;;;;;;;5048413;28;20049;-60
2023/12/05 12:11:04;;;;;;;41.42;21.40;;;;;;;;;;5055831;28;20060;-60
2023/12/05 12:13:30;;;;;;;39.75;20.77;;;;;;;;;;5046474;28;20048;-60
2023/12/05 12:15:57;;;;;;;35.65;17.00;;;;;;;;;;5039668;28;20044;-60
2023/12/05 12:18:27;;;;;;;37.15;16.33;;;;;;;;;;5040021;28;20085;-60
2023/12/05 12:20:53;;;;;;;50.95;29.20;;;;;;;;;;5057749;28;20037;-60
2023/12/05 12:23:20;;;;;;;67.88;38.53;;;;;;;;;;5058624;28;20091;-60
2023/12/05 12:26:00;;;;;;;35.78;20.15;;;;;;;;;;5053501;28;20044;-60
2023/12/05 12:28:30;;;;;;;33.78;16.88;;;;;;;;;;5057618;28;20058;-60
2023/12/05 12:30:57;;;;;;;78.35;44.28;;;;;;;;;;5056992;28;20044;-61
2023/12/05 12:33:28;;;;;;;39.70;18.25;;;;;;;;;;5056803;28;20044;-60
2023/12/05 12:35:54;;;;;;;50.80;24.90;;;;;;;;;;5056321;28;20121;-60
2023/12/05 12:38:20;;;;;;;39.65;20.45;;;;;;;;;;5055765;28;20053;-60
2023/12/05 12:40:48;;;;;;;39.63;18.08;;;;;;;;;;5055133;28;20083;-60
2023/12/05 12:43:14;;;;;;;35.95;17.67;;;;;;;;;;5056016;28;20052;-60
2023/12/05 12:45:41;;;;;;;33.67;16.77;;;;;;;;;;5055651;28;20621;-60
2023/12/05 12:48:07;;;;;;;33.85;17.55;;;;;;;;;;5057040;28;20047;-60
2023/12/05 12:50:33;;;;;;;36.33;17.33;;;;;;;;;;5058924;28;20120;-60
2023/12/05 12:53:01;;;;;;;36.83;18.70;;;;;;;;;;5061960;28;20127;-60
2023/12/05 12:55:27;;;;;;;35.15;17.88;;;;;;;;;;5060624;28;20047;-60
2023/12/05 12:57:53;;;;;;;34.33;16.90;;;;;;;;;;5060409;28;20041;-60
2023/12/05 13:00:20;;;;;;;39.47;18.08;;;;;;;;;;5060605;28;20053;-60
2023/12/05 13:02:46;;;;;;;34.83;16.10;;;;;;;;;;5060699;28;20140;-60
2023/12/05 13:05:12;;;;;;;33.25;16.38;;;;;;;;;;5045788;28;20422;-61
2023/12/05 13:07:38;;;;;;;33.70;16.17;;;;;;;;;;5060475;28;20561;-61
2023/12/05 13:10:05;;;;;;;42.78;19.73;;;;;;;;;;5060759;28;20102;-60
2023/12/05 13:12:32;;;;;;;42.40;17.80;;;;;;;;;;5061837;28;20059;-60
2023/12/05 13:14:57;;;;;;;33.67;16.20;;;;;;;;;;5061732;28;20599;-61
2023/12/05 13:17:23;;;;;;;36.45;17.02;;;;;;;;;;5061769;28;20051;-61
2023/12/05 13:19:50;;;;;;;35.75;16.65;;;;;;;;;;5061042;28;20045;-60
2023/12/05 13:22:16;;;;;;;40.58;19.77;;;;;;;;;;5061954;28;20051;-60
2023/12/05 13:24:42;;;;;;;38.55;18.25;;;;;;;;;;5061947;28;20050;-61
2023/12/05 13:27:08;;;;;;;35.05;17.42;;;;;;;;;;5061850;28;20080;-61
2023/12/05 13:29:34;;;;;;;33.33;16.15;;;;;;;;;;5061839;28;20044;-60
2023/12/05 13:32:00;;;;;;;37.20;16.85;;;;;;;;;;5061688;28;20098;-61
2023/12/05 13:34:26;;;;;;;39.17;19.25;;;;;;;;;;5060083;28;20083;-61
2023/12/05 13:36:52;;;;;;;37.10;17.58;;;;;;;;;;5062030;28;20084;-61
2023/12/05 13:39:18;;;;;;;35.08;17.25;;;;;;;;;;5061501;28;20052;-60
2023/12/05 13:41:44;;;;;;;39.40;17.85;;;;;;;;;;5061787;28;20033;-60
2023/12/05 13:44:10;;;;;;;32.42;16.83;;;;;;;;;;5062047;28;20438;-61
2023/12/05 13:46:36;;;;;;;33.70;16.45;;;;;;;;;;5065454;28;20083;-60
2023/12/05 13:49:04;;;;;;;38.13;17.00;;;;;;;;;;5065047;28;20110;-61
2023/12/05 13:51:34;;;;;;;33.60;16.83;;;;;;;;;;5064432;28;20040;-61
2023/12/05 13:54:00;;;;;;;35.70;16.65;;;;;;;;;;5064397;28;20048;-60
2023/12/05 13:56:26;;;;;;;36.97;16.13;;;;;;;;;;5063702;28;20055;-60
2023/12/05 13:58:53;;;;;;;35.00;17.00;;;;;;;;;;5064919;28;20541;-60
2023/12/05 14:01:19;;;;;;;37.83;16.10;;;;;;;;;;5064987;28;20507;-60
2023/12/05 14:03:46;;;;;;;34.78;15.68;;;;;;;;;;5057867;28;20048;-60
2023/12/05 14:06:12;;;;;;;37.10;16.40;;;;;;;;;;5062275;28;20048;-60
2023/12/05 14:08:38;;;;;;;39.45;18.05;;;;;;;;;;5064812;28;20502;-60
2023/12/05 14:11:05;;;;;;;41.85;18.23;;;;;;;;;;5063673;28;20076;-61
2023/12/05 14:13:31;;;;;;;37.45;17.02;;;;;;;;;;5058433;28;20094;-60
2023/12/05 14:15:57;;;;;;;36.97;18.30;;;;;;;;;;5061816;28;20044;-60